YWRC weather

Wave Rock Airport
Western Australia, Australia

Public forecast

Using degrees Celsius for public forecast. Weather courtesy of forecast.io.

Closest aviation weather report (METAR) to Wave Rock Airport

Closest report is Perth International Airport, 152.3 nm (282.0 km) W. Retrieved 2019/12/14 07:30 UTC (0 seconds ago):

YPPH 140730Z 22018KT CAVOK 39/M01 Q1008 NOSIG

Closest aviation forecast (TAF) to Wave Rock Airport

Forecast is more than 12 hours old.

Closest forecast is Perth International Airport, 152.3 nm (282.0 km) W. Retrieved 2019/12/13 18:31 UTC (13 hours ago):

TAF YPPH 131706Z 1318/1500 10012KT CAVOK FM140100 02010KT CAVOK FM140400 24014KT CAVOK FM141200 18010KT CAVOK FM141600 10010KT CAVOK